Time;durP1;ratioP1;P1;durP2;ratioP2;P2;SDS_P1;SDS_P2;PMS_P1;PMS_P2;Temp;Humidity;BMP_temperature;BMP_pressure;BME280_temperature;BME280_humidity;BME280_pressure;Samples;Min_cycle;Max_cycle;Signal;HPM_P1;HPM_P2
2023/12/10 00:01:19;;;;;;;14.68;2.10;;;;;;;;;;4989505;28;20042;-47
2023/12/10 00:03:51;;;;;;;21.40;1.63;;;;;;;;;;4996510;28;20595;-49
2023/12/10 00:06:23;;;;;;;12.65;1.05;;;;;;;;;;4981812;28;20091;-49
2023/12/10 00:08:51;;;;;;;14.50;1.88;;;;;;;;;;4985506;28;20124;-49
2023/12/10 00:11:19;;;;;;;9.82;1.42;;;;;;;;;;5013956;28;20038;-47
2023/12/10 00:13:48;;;;;;;11.35;1.10;;;;;;;;;;4992560;28;20621;-49
2023/12/10 00:16:16;;;;;;;16.07;2.03;;;;;;;;;;5005012;28;20052;-47
2023/12/10 00:18:44;;;;;;;11.80;1.40;;;;;;;;;;4974701;28;21053;-49
2023/12/10 00:21:13;;;;;;;12.95;1.98;;;;;;;;;;4999502;28;20135;-47
2023/12/10 00:23:41;;;;;;;12.45;1.30;;;;;;;;;;4972490;28;20045;-48
2023/12/10 00:26:09;;;;;;;12.50;1.75;;;;;;;;;;4994324;28;20522;-50
2023/12/10 00:28:37;;;;;;;17.90;2.10;;;;;;;;;;4983056;28;20041;-49
2023/12/10 00:31:09;;;;;;;18.13;1.73;;;;;;;;;;5007627;28;20041;-47
2023/12/10 00:33:36;;;;;;;15.38;1.90;;;;;;;;;;4984212;28;20056;-49
2023/12/10 00:36:05;;;;;;;18.60;2.80;;;;;;;;;;4997844;28;20069;-51
2023/12/10 00:38:33;;;;;;;19.10;2.33;;;;;;;;;;4986292;28;20498;-49
2023/12/10 00:41:00;;;;;;;14.27;2.53;;;;;;;;;;4994378;28;20049;-48
2023/12/10 00:43:28;;;;;;;12.00;1.90;;;;;;;;;;4987551;28;20605;-50
2023/12/10 00:45:57;;;;;;;13.27;2.05;;;;;;;;;;4997094;28;20044;-48
2023/12/10 00:48:26;;;;;;;16.88;2.72;;;;;;;;;;4993623;28;20045;-48
2023/12/10 00:50:54;;;;;;;12.20;1.63;;;;;;;;;;4991881;28;20776;-49
2023/12/10 00:53:22;;;;;;;15.33;2.13;;;;;;;;;;4977111;28;20085;-50
2023/12/10 00:55:51;;;;;;;17.83;2.15;;;;;;;;;;4954930;28;20049;-49
2023/12/10 00:58:19;;;;;;;11.35;1.45;;;;;;;;;;4993247;28;20435;-49
2023/12/10 01:00:47;;;;;;;12.05;1.40;;;;;;;;;;4987294;28;20053;-51
2023/12/10 01:03:15;;;;;;;13.27;1.73;;;;;;;;;;4986842;28;23368;-49
2023/12/10 01:05:44;;;;;;;14.57;2.20;;;;;;;;;;4987267;28;20524;-50
2023/12/10 01:08:12;;;;;;;15.13;2.30;;;;;;;;;;4994748;28;20053;-47
2023/12/10 01:10:40;;;;;;;14.65;1.70;;;;;;;;;;4980302;28;20045;-47
2023/12/10 01:13:08;;;;;;;25.63;2.78;;;;;;;;;;4997987;28;20052;-50
2023/12/10 01:15:36;;;;;;;15.18;1.58;;;;;;;;;;4985273;28;20091;-53
2023/12/10 01:18:04;;;;;;;12.73;1.47;;;;;;;;;;5001090;28;20072;-48
2023/12/10 01:20:33;;;;;;;11.48;1.40;;;;;;;;;;4988878;28;20037;-47
2023/12/10 01:23:04;;;;;;;12.65;1.67;;;;;;;;;;4993167;28;20084;-50
2023/12/10 01:25:31;;;;;;;12.57;2.95;;;;;;;;;;4987109;28;20048;-47
2023/12/10 01:28:01;;;;;;;17.58;1.92;;;;;;;;;;4984391;28;20500;-53
2023/12/10 01:30:29;;;;;;;13.60;1.80;;;;;;;;;;4997311;28;20037;-46
2023/12/10 01:32:57;;;;;;;19.50;2.08;;;;;;;;;;4982087;28;20671;-48
2023/12/10 01:35:25;;;;;;;14.63;1.67;;;;;;;;;;5006948;28;20487;-48
2023/12/10 01:37:53;;;;;;;9.98;1.75;;;;;;;;;;4983393;28;20053;-48
2023/12/10 01:40:23;;;;;;;20.02;2.90;;;;;;;;;;4996589;28;20041;-49
2023/12/10 01:42:51;;;;;;;15.37;2.10;;;;;;;;;;4980841;28;20369;-50
2023/12/10 01:45:23;;;;;;;13.65;1.45;;;;;;;;;;4996434;28;20065;-49
2023/12/10 01:48:11;;;;;;;25.02;2.38;;;;;;;;;;4986412;28;20076;-49
2023/12/10 01:50:42;;;;;;;18.48;2.22;;;;;;;;;;4991403;28;20046;-49
2023/12/10 01:53:09;;;;;;;9.18;0.88;;;;;;;;;;4999206;28;20057;-47
2023/12/10 01:55:39;;;;;;;13.67;1.43;;;;;;;;;;4927776;28;20483;-51
2023/12/10 01:58:06;;;;;;;18.75;2.15;;;;;;;;;;4993307;28;20123;-48
2023/12/10 02:00:35;;;;;;;21.13;2.50;;;;;;;;;;4981934;28;20068;-48
2023/12/10 02:03:04;;;;;;;15.25;1.63;;;;;;;;;;4997930;28;20052;-50
2023/12/10 02:05:31;;;;;;;16.58;1.63;;;;;;;;;;4982155;28;20559;-47
2023/12/10 02:07:59;;;;;;;16.10;2.33;;;;;;;;;;5004609;28;20122;-50
2023/12/10 02:10:27;;;;;;;15.20;1.83;;;;;;;;;;4991996;28;20102;-50
2023/12/10 02:12:57;;;;;;;24.55;2.75;;;;;;;;;;4991946;28;20041;-50
2023/12/10 02:15:26;;;;;;;16.60;2.28;;;;;;;;;;5004644;28;20613;-51
2023/12/10 02:17:54;;;;;;;21.67;2.15;;;;;;;;;;4998719;28;20249;-49
2023/12/10 02:20:22;;;;;;;18.50;1.87;;;;;;;;;;4978961;28;20402;-49
2023/12/10 02:22:53;;;;;;;15.20;1.83;;;;;;;;;;4995855;28;20069;-51
2023/12/10 02:25:23;;;;;;;19.00;1.60;;;;;;;;;;5003472;28;20040;-51
2023/12/10 02:27:52;;;;;;;11.65;1.63;;;;;;;;;;4991195;28;20053;-49
2023/12/10 02:30:20;;;;;;;13.50;1.48;;;;;;;;;;4984680;28;20049;-49
2023/12/10 02:32:49;;;;;;;15.70;2.00;;;;;;;;;;4999049;28;20444;-48
2023/12/10 02:35:18;;;;;;;18.67;3.10;;;;;;;;;;4997863;28;20152;-47
2023/12/10 02:37:46;;;;;;;13.77;2.03;;;;;;;;;;4997905;28;20505;-50
2023/12/10 02:40:16;;;;;;;15.35;1.60;;;;;;;;;;4997521;28;20041;-53
2023/12/10 02:43:03;;;;;;;19.50;2.38;;;;;;;;;;4987663;28;20052;-48
2023/12/10 02:45:31;;;;;;;14.90;2.10;;;;;;;;;;4993688;28;20122;-47
2023/12/10 02:47:59;;;;;;;10.95;1.25;;;;;;;;;;4991885;28;20125;-50
2023/12/10 02:50:26;;;;;;;18.88;2.33;;;;;;;;;;4999830;28;20107;-46
2023/12/10 02:52:54;;;;;;;16.15;1.85;;;;;;;;;;4996202;28;20050;-49
2023/12/10 02:55:23;;;;;;;14.88;1.38;;;;;;;;;;4991557;28;20049;-49
2023/12/10 02:57:51;;;;;;;15.93;2.10;;;;;;;;;;4997638;28;20123;-47
2023/12/10 03:00:21;;;;;;;15.88;1.80;;;;;;;;;;4975883;28;20038;-48
2023/12/10 03:02:48;;;;;;;22.23;2.13;;;;;;;;;;4990790;28;20053;-47
2023/12/10 03:05:16;;;;;;;18.45;2.92;;;;;;;;;;5006574;28;20042;-47
2023/12/10 03:07:44;;;;;;;11.57;1.83;;;;;;;;;;5000927;28;20045;-50
2023/12/10 03:10:13;;;;;;;14.40;1.53;;;;;;;;;;4998316;28;20045;-47
2023/12/10 03:12:41;;;;;;;15.32;1.50;;;;;;;;;;5007078;28;20667;-48
2023/12/10 03:15:09;;;;;;;14.38;1.48;;;;;;;;;;4989497;28;20124;-48
2023/12/10 03:17:39;;;;;;;13.23;1.33;;;;;;;;;;4995199;28;20037;-47
2023/12/10 03:20:09;;;;;;;12.27;1.23;;;;;;;;;;4996418;28;20045;-49
2023/12/10 03:22:37;;;;;;;14.50;2.07;;;;;;;;;;4988077;28;20068;-48
2023/12/10 03:25:05;;;;;;;11.02;1.40;;;;;;;;;;4998303;28;20052;-50
2023/12/10 03:27:33;;;;;;;15.65;1.80;;;;;;;;;;4993317;28;20037;-46
2023/12/10 03:30:01;;;;;;;10.55;1.45;;;;;;;;;;4995670;28;20041;-49
2023/12/10 03:32:32;;;;;;;15.50;2.05;;;;;;;;;;4964354;28;20424;-50
2023/12/10 03:35:01;;;;;;;12.40;2.40;;;;;;;;;;4992593;28;20083;-49
2023/12/10 03:37:29;;;;;;;15.07;1.98;;;;;;;;;;4995696;28;20046;-51
2023/12/10 03:39:56;;;;;;;10.48;1.35;;;;;;;;;;4985474;28;20037;-49
2023/12/10 03:42:24;;;;;;;12.70;1.35;;;;;;;;;;5008338;28;20037;-47
2023/12/10 03:44:52;;;;;;;11.20;1.33;;;;;;;;;;4983650;28;20458;-47
2023/12/10 03:47:20;;;;;;;22.50;1.97;;;;;;;;;;4990579;28;20117;-49
2023/12/10 03:49:48;;;;;;;15.13;1.45;;;;;;;;;;4987092;28;20045;-47
2023/12/10 03:52:18;;;;;;;11.57;1.25;;;;;;;;;;4967403;28;20452;-47
2023/12/10 03:54:45;;;;;;;10.32;1.20;;;;;;;;;;4990473;28;20041;-48
2023/12/10 03:57:13;;;;;;;8.32;0.93;;;;;;;;;;4977908;28;20622;-47
2023/12/10 03:59:41;;;;;;;10.13;1.03;;;;;;;;;;5006299;28;20046;-47
2023/12/10 04:02:09;;;;;;;7.50;0.73;;;;;;;;;;4984243;28;22219;-50
2023/12/10 04:04:37;;;;;;;11.82;0.90;;;;;;;;;;5004119;28;20037;-50
2023/12/10 04:07:05;;;;;;;14.57;1.17;;;;;;;;;;4984691;28;20266;-47
2023/12/10 04:09:34;;;;;;;9.40;1.15;;;;;;;;;;4995017;28;20491;-48
2023/12/10 04:12:01;;;;;;;10.37;1.47;;;;;;;;;;4972985;28;20149;-48
2023/12/10 04:14:29;;;;;;;11.43;0.95;;;;;;;;;;4961471;28;20288;-52
2023/12/10 04:16:57;;;;;;;11.32;1.50;;;;;;;;;;5000402;28;20049;-52
2023/12/10 04:19:25;;;;;;;10.98;0.88;;;;;;;;;;4988472;28;20044;-50
2023/12/10 04:21:53;;;;;;;11.98;1.17;;;;;;;;;;4988338;28;20041;-52
2023/12/10 04:24:20;;;;;;;12.43;1.67;;;;;;;;;;4996418;28;20067;-47
2023/12/10 04:26:50;;;;;;;10.73;1.20;;;;;;;;;;5002222;28;20492;-47
2023/12/10 04:29:17;;;;;;;8.95;1.08;;;;;;;;;;4995401;28;20048;-48
2023/12/10 04:31:45;;;;;;;13.60;2.00;;;;;;;;;;4997455;28;20049;-48
2023/12/10 04:34:13;;;;;;;15.20;1.63;;;;;;;;;;4999502;28;20494;-48
2023/12/10 04:36:41;;;;;;;7.63;1.00;;;;;;;;;;4989455;28;20066;-51
2023/12/10 04:39:10;;;;;;;6.70;0.95;;;;;;;;;;4988383;28;20046;-49
2023/12/10 04:41:37;;;;;;;6.80;1.08;;;;;;;;;;4988603;28;20050;-47
2023/12/10 04:44:07;;;;;;;14.48;1.35;;;;;;;;;;4986739;28;20048;-48
2023/12/10 04:46:36;;;;;;;10.20;1.67;;;;;;;;;;5001393;28;20038;-47
2023/12/10 04:49:22;;;;;;;14.00;1.63;;;;;;;;;;4988668;28;20046;-47
2023/12/10 04:51:51;;;;;;;13.05;1.00;;;;;;;;;;4976709;28;20049;-48
2023/12/10 04:54:19;;;;;;;13.23;1.30;;;;;;;;;;4998115;28;20065;-47
2023/12/10 04:56:47;;;;;;;13.15;1.60;;;;;;;;;;4999682;28;20046;-51
2023/12/10 04:59:16;;;;;;;14.52;1.48;;;;;;;;;;4991731;28;20536;-49
2023/12/10 05:01:43;;;;;;;11.67;1.17;;;;;;;;;;4998361;28;20042;-47
2023/12/10 05:04:12;;;;;;;6.28;1.10;;;;;;;;;;4979866;28;20065;-50
2023/12/10 05:06:40;;;;;;;11.77;0.98;;;;;;;;;;4997897;28;20208;-47
2023/12/10 05:09:10;;;;;;;11.63;1.20;;;;;;;;;;4987817;28;20034;-48
2023/12/10 05:11:38;;;;;;;12.65;0.73;;;;;;;;;;4996568;28;20065;-48
2023/12/10 05:14:07;;;;;;;10.47;1.10;;;;;;;;;;4999571;28;20068;-50
2023/12/10 05:16:36;;;;;;;15.63;1.63;;;;;;;;;;4995276;28;20052;-47
2023/12/10 05:19:04;;;;;;;11.27;1.38;;;;;;;;;;5005159;28;20046;-46
2023/12/10 05:21:35;;;;;;;15.25;1.95;;;;;;;;;;4987650;28;20038;-50
2023/12/10 05:24:02;;;;;;;14.10;1.67;;;;;;;;;;5008451;28;20543;-48
2023/12/10 05:26:30;;;;;;;11.10;1.57;;;;;;;;;;4991805;28;20045;-50
2023/12/10 05:28:58;;;;;;;12.15;1.25;;;;;;;;;;4997767;28;20061;-49
2023/12/10 05:31:26;;;;;;;9.82;1.25;;;;;;;;;;4989882;28;20049;-47
2023/12/10 05:33:55;;;;;;;17.67;1.30;;;;;;;;;;4999501;28;20037;-47
2023/12/10 05:36:23;;;;;;;12.63;1.08;;;;;;;;;;4995530;28;20045;-47
2023/12/10 05:38:51;;;;;;;14.27;1.97;;;;;;;;;;5003402;28;20124;-46
2023/12/10 05:41:18;;;;;;;10.85;1.15;;;;;;;;;;4999902;28;20060;-47
2023/12/10 05:43:46;;;;;;;13.95;1.23;;;;;;;;;;4991612;28;20049;-49
2023/12/10 05:46:14;;;;;;;14.40;0.90;;;;;;;;;;4991605;28;20045;-47
2023/12/10 05:48:42;;;;;;;12.90;1.40;;;;;;;;;;4991623;28;20044;-46
2023/12/10 05:51:11;;;;;;;6.97;1.07;;;;;;;;;;4981227;28;20072;-49
2023/12/10 05:53:39;;;;;;;9.23;1.38;;;;;;;;;;4993223;28;20049;-48
2023/12/10 05:56:08;;;;;;;11.65;1.02;;;;;;;;;;4988975;28;20047;-51
2023/12/10 05:58:36;;;;;;;11.52;1.08;;;;;;;;;;4976914;28;20068;-47
2023/12/10 06:01:04;;;;;;;14.07;1.83;;;;;;;;;;4985739;28;20140;-46
2023/12/10 06:03:32;;;;;;;16.30;2.77;;;;;;;;;;4978795;28;20042;-48
2023/12/10 06:06:00;;;;;;;12.05;1.73;;;;;;;;;;4990053;28;20051;-46
2023/12/10 06:08:30;;;;;;;12.90;1.20;;;;;;;;;;4968109;28;20345;-49
2023/12/10 06:10:58;;;;;;;11.48;1.52;;;;;;;;;;4982938;28;20056;-50
2023/12/10 06:13:27;;;;;;;16.25;2.03;;;;;;;;;;4986616;28;20050;-51
2023/12/10 06:15:56;;;;;;;16.17;1.30;;;;;;;;;;4998058;28;20053;-48
2023/12/10 06:18:24;;;;;;;24.10;2.15;;;;;;;;;;4975579;28;20041;-52
2023/12/10 06:20:52;;;;;;;20.58;1.30;;;;;;;;;;4995446;28;20056;-49
2023/12/10 06:23:20;;;;;;;22.27;2.08;;;;;;;;;;4979945;28;20042;-47
2023/12/10 06:25:50;;;;;;;16.33;1.60;;;;;;;;;;4971896;28;20383;-47
2023/12/10 06:28:18;;;;;;;24.43;2.57;;;;;;;;;;4977465;28;20042;-52
2023/12/10 06:30:45;;;;;;;17.08;1.98;;;;;;;;;;4976299;28;20045;-47
2023/12/10 06:33:13;;;;;;;23.85;2.25;;;;;;;;;;5005432;28;20645;-48
2023/12/10 06:35:41;;;;;;;22.38;2.42;;;;;;;;;;4982501;28;20042;-52
2023/12/10 06:38:10;;;;;;;23.60;2.33;;;;;;;;;;4999309;28;20056;-50
2023/12/10 06:40:37;;;;;;;23.13;3.50;;;;;;;;;;4986028;28;20037;-49
2023/12/10 06:43:07;;;;;;;19.90;2.22;;;;;;;;;;4991692;28;20037;-50
2023/12/10 06:45:35;;;;;;;23.95;3.00;;;;;;;;;;4983371;28;20064;-50
2023/12/10 06:48:03;;;;;;;25.20;4.32;;;;;;;;;;4991930;28;20430;-49
2023/12/10 06:50:31;;;;;;;26.40;2.85;;;;;;;;;;4991296;28;20037;-47
2023/12/10 06:52:59;;;;;;;22.40;2.70;;;;;;;;;;4996948;28;20118;-49
2023/12/10 06:55:27;;;;;;;34.22;4.15;;;;;;;;;;4989295;28;20042;-48
2023/12/10 06:57:55;;;;;;;25.55;2.38;;;;;;;;;;4989944;28;20041;-49
2023/12/10 07:00:25;;;;;;;25.92;2.63;;;;;;;;;;4998495;28;20058;-47
2023/12/10 07:02:55;;;;;;;29.58;4.05;;;;;;;;;;4983600;28;20499;-50
2023/12/10 07:05:23;;;;;;;33.07;2.80;;;;;;;;;;4990685;28;20466;-48
2023/12/10 07:07:51;;;;;;;24.05;2.65;;;;;;;;;;5001084;28;20030;-48
2023/12/10 07:10:18;;;;;;;26.55;3.08;;;;;;;;;;4976328;28;20528;-47
2023/12/10 07:12:47;;;;;;;26.15;3.15;;;;;;;;;;5003869;28;20045;-47
2023/12/10 07:15:15;;;;;;;27.90;3.08;;;;;;;;;;4985409;28;20037;-49
2023/12/10 07:17:44;;;;;;;31.67;3.27;;;;;;;;;;5004641;28;20041;-48
2023/12/10 07:20:13;;;;;;;33.97;3.95;;;;;;;;;;4986927;28;20060;-50
2023/12/10 07:22:41;;;;;;;27.80;4.03;;;;;;;;;;5011928;28;20099;-51
2023/12/10 07:25:10;;;;;;;25.27;3.55;;;;;;;;;;4985803;28;20309;-47
2023/12/10 07:27:38;;;;;;;21.88;2.90;;;;;;;;;;5000644;28;20052;-49
2023/12/10 07:30:07;;;;;;;23.17;2.70;;;;;;;;;;4988185;28;20045;-47
2023/12/10 07:32:35;;;;;;;31.20;3.00;;;;;;;;;;5005551;28;20045;-47
2023/12/10 07:35:05;;;;;;;29.88;2.95;;;;;;;;;;4974085;28;20038;-47
2023/12/10 07:37:33;;;;;;;28.30;3.58;;;;;;;;;;4999163;28;20049;-47
2023/12/10 07:40:00;;;;;;;32.35;3.50;;;;;;;;;;4979845;28;20111;-50
2023/12/10 07:42:28;;;;;;;25.53;3.47;;;;;;;;;;5003081;28;20041;-49
2023/12/10 07:44:57;;;;;;;28.83;3.08;;;;;;;;;;4994650;28;20530;-51
2023/12/10 07:47:25;;;;;;;27.45;2.50;;;;;;;;;;4996582;28;20041;-48
2023/12/10 07:49:53;;;;;;;24.95;2.88;;;;;;;;;;4998390;28;20037;-47
2023/12/10 07:52:22;;;;;;;24.20;3.90;;;;;;;;;;4989301;28;20099;-48
2023/12/10 07:54:50;;;;;;;32.60;3.67;;;;;;;;;;4989135;28;20068;-50
2023/12/10 07:57:18;;;;;;;29.00;3.13;;;;;;;;;;4996435;28;20061;-46
2023/12/10 07:59:45;;;;;;;25.90;2.55;;;;;;;;;;4987948;28;20041;-46
2023/12/10 08:02:13;;;;;;;26.85;3.38;;;;;;;;;;5005924;28;20045;-46
2023/12/10 08:04:41;;;;;;;30.38;2.75;;;;;;;;;;4982419;28;20379;-50
2023/12/10 08:07:09;;;;;;;23.53;3.40;;;;;;;;;;4997749;28;20044;-51
2023/12/10 08:09:38;;;;;;;23.98;3.30;;;;;;;;;;4989182;28;20030;-46
2023/12/10 08:12:07;;;;;;;29.98;3.30;;;;;;;;;;4993463;28;20055;-49
2023/12/10 08:14:35;;;;;;;24.98;2.60;;;;;;;;;;4997528;28;20655;-48
2023/12/10 08:17:03;;;;;;;23.17;2.97;;;;;;;;;;4998442;28;20045;-48
2023/12/10 08:19:31;;;;;;;23.80;2.23;;;;;;;;;;4990930;28;20045;-47
2023/12/10 08:22:00;;;;;;;29.55;3.75;;;;;;;;;;4980972;28;21340;-49
2023/12/10 08:24:27;;;;;;;22.88;3.03;;;;;;;;;;4978518;28;20890;-46
2023/12/10 08:26:57;;;;;;;24.58;3.03;;;;;;;;;;4997951;28;20305;-47
2023/12/10 08:29:24;;;;;;;26.65;3.05;;;;;;;;;;4984371;28;20033;-46
2023/12/10 08:31:52;;;;;;;31.63;2.87;;;;;;;;;;5002372;28;20053;-47
2023/12/10 08:34:20;;;;;;;27.98;3.33;;;;;;;;;;4977959;28;20042;-45
2023/12/10 08:36:48;;;;;;;30.20;3.75;;;;;;;;;;5001976;28;20060;-47
2023/12/10 08:39:16;;;;;;;32.60;2.97;;;;;;;;;;4983983;28;20718;-46
2023/12/10 08:41:44;;;;;;;24.92;5.10;;;;;;;;;;5001971;28;20049;-47
2023/12/10 08:44:14;;;;;;;23.87;4.03;;;;;;;;;;4990985;28;20092;-50
2023/12/10 08:46:43;;;;;;;30.50;3.10;;;;;;;;;;5003265;28;20088;-48
2023/12/10 08:49:12;;;;;;;26.08;3.05;;;;;;;;;;4986862;28;20148;-48
2023/12/10 08:51:40;;;;;;;29.52;3.65;;;;;;;;;;4993194;28;20130;-46
2023/12/10 08:54:08;;;;;;;42.80;4.32;;;;;;;;;;4994256;28;20064;-48
2023/12/10 08:56:36;;;;;;;27.23;2.83;;;;;;;;;;4997537;28;20076;-50
2023/12/10 08:59:04;;;;;;;21.58;3.28;;;;;;;;;;4991022;28;20053;-46
2023/12/10 09:01:33;;;;;;;36.58;5.07;;;;;;;;;;4992586;28;20049;-47
2023/12/10 09:04:03;;;;;;;31.65;3.38;;;;;;;;;;4999225;28;20060;-47
2023/12/10 09:06:31;;;;;;;31.08;2.97;;;;;;;;;;4999998;28;20122;-46
2023/12/10 09:08:59;;;;;;;31.07;3.33;;;;;;;;;;5006592;28;20045;-46
2023/12/10 09:11:27;;;;;;;37.33;3.70;;;;;;;;;;5000415;28;20491;-47
2023/12/10 09:13:54;;;;;;;27.95;3.85;;;;;;;;;;4997374;28;20045;-49
2023/12/10 09:16:26;;;;;;;19.52;2.80;;;;;;;;;;5003637;28;20045;-48
2023/12/10 09:18:55;;;;;;;27.23;5.35;;;;;;;;;;4995904;28;20045;-47
2023/12/10 09:21:22;;;;;;;37.10;3.00;;;;;;;;;;4986972;28;20037;-47
2023/12/10 09:23:50;;;;;;;35.05;3.50;;;;;;;;;;4989740;28;20065;-46
2023/12/10 09:26:19;;;;;;;24.65;3.40;;;;;;;;;;5001048;28;20433;-46
2023/12/10 09:28:48;;;;;;;35.88;3.60;;;;;;;;;;4996904;28;20033;-46
2023/12/10 09:31:16;;;;;;;27.30;3.23;;;;;;;;;;4655559;28;10000396;-48
2023/12/10 09:33:44;;;;;;;29.85;2.95;;;;;;;;;;4986796;28;20049;-46
2023/12/10 09:36:13;;;;;;;32.47;3.65;;;;;;;;;;4970538;28;20042;-46
2023/12/10 09:38:42;;;;;;;29.65;3.22;;;;;;;;;;4985078;28;20034;-44
2023/12/10 09:41:10;;;;;;;28.83;2.83;;;;;;;;;;4982997;28;20568;-49
2023/12/10 09:43:38;;;;;;;27.85;4.05;;;;;;;;;;4990139;28;20045;-50
2023/12/10 09:46:10;;;;;;;35.53;4.47;;;;;;;;;;4980727;28;20037;-46
2023/12/10 09:48:40;;;;;;;33.85;4.05;;;;;;;;;;4985992;28;20038;-46
2023/12/10 09:51:08;;;;;;;29.30;3.13;;;;;;;;;;4989182;28;20490;-46
2023/12/10 09:53:37;;;;;;;36.17;3.03;;;;;;;;;;4992449;28;20618;-47
2023/12/10 09:56:09;;;;;;;29.48;3.70;;;;;;;;;;5004601;28;20503;-47
2023/12/10 09:58:37;;;;;;;32.72;3.40;;;;;;;;;;4983047;28;20391;-49
2023/12/10 10:01:08;;;;;;;26.42;3.83;;;;;;;;;;4986113;28;20177;-50
2023/12/10 10:03:36;;;;;;;23.55;3.08;;;;;;;;;;4997280;28;20111;-49
2023/12/10 10:06:07;;;;;;;23.07;2.73;;;;;;;;;;4985290;28;20037;-47
2023/12/10 10:08:35;;;;;;;33.70;3.92;;;;;;;;;;4975958;28;20053;-46
2023/12/10 10:11:04;;;;;;;27.27;3.75;;;;;;;;;;4986291;28;20060;-49
2023/12/10 10:13:32;;;;;;;24.20;3.75;;;;;;;;;;4985042;28;21040;-47
2023/12/10 10:16:09;;;;;;;23.15;2.70;;;;;;;;;;4983410;28;20050;-48
2023/12/10 10:18:41;;;;;;;19.60;2.40;;;;;;;;;;4982772;28;20041;-49
2023/12/10 10:21:10;;;;;;;20.10;3.08;;;;;;;;;;4988658;28;20045;-46
2023/12/10 10:23:38;;;;;;;30.17;3.00;;;;;;;;;;4987041;28;20053;-48
2023/12/10 10:26:07;;;;;;;25.13;3.08;;;;;;;;;;4988854;28;20049;-45
2023/12/10 10:28:35;;;;;;;13.80;2.50;;;;;;;;;;4993772;28;20073;-46
2023/12/10 10:31:03;;;;;;;20.83;3.83;;;;;;;;;;4986372;28;20045;-49
2023/12/10 10:33:31;;;;;;;16.08;2.10;;;;;;;;;;4980172;28;20491;-48
2023/12/10 10:36:04;;;;;;;27.42;2.70;;;;;;;;;;4995282;28;20041;-47
2023/12/10 10:38:32;;;;;;;17.70;1.77;;;;;;;;;;4986272;28;20115;-46
2023/12/10 10:41:00;;;;;;;24.58;2.30;;;;;;;;;;4993175;28;20042;-50
2023/12/10 10:43:29;;;;;;;20.17;3.07;;;;;;;;;;4983922;28;20048;-46
2023/12/10 10:45:57;;;;;;;23.23;2.05;;;;;;;;;;4992629;28;20446;-50
2023/12/10 10:48:26;;;;;;;20.75;1.70;;;;;;;;;;4974020;28;20047;-46
2023/12/10 10:50:55;;;;;;;22.50;2.30;;;;;;;;;;4647203;28;10000564;-47
2023/12/10 10:53:24;;;;;;;16.75;2.17;;;;;;;;;;4952610;28;20053;-49
2023/12/10 10:55:52;;;;;;;17.25;2.40;;;;;;;;;;4993390;28;20258;-48
2023/12/10 10:58:23;;;;;;;17.87;1.43;;;;;;;;;;4986119;28;21165;-46
2023/12/10 11:00:52;;;;;;;19.27;1.98;;;;;;;;;;4994807;28;20739;-46
2023/12/10 11:03:20;;;;;;;23.02;2.67;;;;;;;;;;4991735;28;20387;-46
2023/12/10 11:05:48;;;;;;;22.92;3.40;;;;;;;;;;5001150;28;20041;-46
2023/12/10 11:08:16;;;;;;;19.50;1.92;;;;;;;;;;4996142;28;20864;-45
2023/12/10 11:10:45;;;;;;;15.30;1.77;;;;;;;;;;4977073;28;20052;-47
2023/12/10 11:13:14;;;;;;;15.95;2.38;;;;;;;;;;4996498;28;20419;-47
2023/12/10 11:15:42;;;;;;;17.83;1.98;;;;;;;;;;4994844;28;20487;-46
2023/12/10 11:18:12;;;;;;;18.88;1.73;;;;;;;;;;4991395;28;20136;-49
2023/12/10 11:20:40;;;;;;;16.77;2.13;;;;;;;;;;4998243;28;20037;-47
2023/12/10 11:23:10;;;;;;;11.53;2.33;;;;;;;;;;4988071;28;20048;-49
2023/12/10 11:25:40;;;;;;;11.68;1.75;;;;;;;;;;4990377;28;20049;-47
2023/12/10 11:28:10;;;;;;;16.98;2.28;;;;;;;;;;4979067;28;20038;-46
2023/12/10 11:30:39;;;;;;;17.02;1.63;;;;;;;;;;4988535;28;20037;-47
2023/12/10 11:33:07;;;;;;;18.85;2.03;;;;;;;;;;4998684;28;20051;-48
2023/12/10 11:35:37;;;;;;;10.80;1.90;;;;;;;;;;4991384;28;20045;-47
2023/12/10 11:38:05;;;;;;;10.75;1.20;;;;;;;;;;4992412;28;20045;-51
2023/12/10 11:40:34;;;;;;;16.67;1.98;;;;;;;;;;4994114;28;20048;-46
2023/12/10 11:43:05;;;;;;;10.93;1.80;;;;;;;;;;4996918;28;20053;-49
2023/12/10 11:45:33;;;;;;;10.25;1.33;;;;;;;;;;4988446;28;20133;-46
2023/12/10 11:48:03;;;;;;;17.53;1.50;;;;;;;;;;5002772;28;20242;-47
2023/12/10 11:50:31;;;;;;;12.75;1.45;;;;;;;;;;4972865;28;20435;-48
2023/12/10 11:53:01;;;;;;;10.25;1.42;;;;;;;;;;5001013;28;20045;-49
2023/12/10 11:55:32;;;;;;;10.25;1.42;;;;;;;;;;4999201;28;20049;-46
2023/12/10 11:58:00;;;;;;;8.02;0.85;;;;;;;;;;4987184;28;20065;-46
2023/12/10 12:00:28;;;;;;;9.20;1.20;;;;;;;;;;5004932;28;20103;-48
2023/12/10 12:02:56;;;;;;;9.70;1.23;;;;;;;;;;4993749;28;20071;-47
2023/12/10 12:05:24;;;;;;;13.48;0.93;;;;;;;;;;4998171;28;20107;-50
2023/12/10 12:07:52;;;;;;;13.45;0.82;;;;;;;;;;5000265;28;20049;-50
2023/12/10 12:10:21;;;;;;;5.32;0.43;;;;;;;;;;4989300;28;20454;-49
2023/12/10 12:12:49;;;;;;;5.30;0.73;;;;;;;;;;5006291;28;20068;-51
2023/12/10 12:15:17;;;;;;;3.13;0.40;;;;;;;;;;4985779;28;20052;-46
2023/12/10 12:17:46;;;;;;;6.22;0.50;;;;;;;;;;5023515;28;20057;-49
2023/12/10 12:20:17;;;;;;;5.25;0.63;;;;;;;;;;4989155;28;22638;-48
2023/12/10 12:22:46;;;;;;;4.85;0.40;;;;;;;;;;5003157;28;20045;-51
2023/12/10 12:25:16;;;;;;;3.50;0.40;;;;;;;;;;4997911;28;20048;-50
2023/12/10 12:27:45;;;;;;;4.75;0.50;;;;;;;;;;4997777;28;20439;-49
2023/12/10 12:30:15;;;;;;;4.85;0.45;;;;;;;;;;5000834;28;20041;-47
2023/12/10 12:32:43;;;;;;;3.10;0.70;;;;;;;;;;4999404;28;20045;-49
2023/12/10 12:35:10;;;;;;;6.65;0.75;;;;;;;;;;5001303;28;20050;-48
2023/12/10 12:37:39;;;;;;;4.43;0.30;;;;;;;;;;4995071;28;20038;-48
2023/12/10 12:40:08;;;;;;;3.15;0.20;;;;;;;;;;5006392;28;20069;-47
2023/12/10 12:42:36;;;;;;;4.55;0.40;;;;;;;;;;5001033;28;20045;-48
2023/12/10 12:45:06;;;;;;;2.58;0.60;;;;;;;;;;4993295;28;20046;-46
2023/12/10 12:47:34;;;;;;;2.65;0.22;;;;;;;;;;4998307;28;20056;-50
2023/12/10 12:50:02;;;;;;;1.67;0.20;;;;;;;;;;4996961;28;20909;-46
2023/12/10 12:52:31;;;;;;;2.25;0.30;;;;;;;;;;4298659;28;10000444;-48
2023/12/10 12:54:58;;;;;;;4.03;0.38;;;;;;;;;;5003709;28;20046;-48
2023/12/10 12:57:26;;;;;;;4.78;0.57;;;;;;;;;;4973826;28;20037;-47
2023/12/10 12:59:54;;;;;;;2.23;0.27;;;;;;;;;;4985597;28;20103;-47
2023/12/10 13:02:23;;;;;;;2.28;0.40;;;;;;;;;;5000948;28;20041;-51
2023/12/10 13:04:51;;;;;;;3.67;0.50;;;;;;;;;;4990295;28;20758;-47
2023/12/10 13:07:18;;;;;;;3.78;0.30;;;;;;;;;;4998648;28;20047;-47
2023/12/10 13:09:47;;;;;;;4.82;0.40;;;;;;;;;;5003940;28;20045;-47
2023/12/10 13:12:15;;;;;;;3.30;0.40;;;;;;;;;;4981601;28;20034;-51
2023/12/10 13:14:42;;;;;;;4.28;0.38;;;;;;;;;;5002575;28;20577;-49
2023/12/10 13:17:11;;;;;;;4.30;0.47;;;;;;;;;;4988111;28;20148;-50
2023/12/10 13:19:40;;;;;;;3.25;0.40;;;;;;;;;;5001778;28;20072;-47
2023/12/10 13:22:08;;;;;;;3.67;0.30;;;;;;;;;;4974700;28;20121;-48
2023/12/10 13:24:37;;;;;;;2.30;0.40;;;;;;;;;;5002738;28;20041;-48
2023/12/10 13:27:04;;;;;;;4.53;0.57;;;;;;;;;;4646546;28;10000157;-48
2023/12/10 13:29:32;;;;;;;2.77;0.57;;;;;;;;;;4985986;28;20033;-47
2023/12/10 13:32:00;;;;;;;5.28;0.70;;;;;;;;;;4978835;28;20910;-49
2023/12/10 13:34:30;;;;;;;3.15;0.40;;;;;;;;;;4999111;28;20038;-50
2023/12/10 13:36:59;;;;;;;5.30;0.43;;;;;;;;;;4963237;28;20388;-47
2023/12/10 13:39:27;;;;;;;5.55;0.85;;;;;;;;;;4996425;28;20044;-45
2023/12/10 13:41:55;;;;;;;9.70;0.97;;;;;;;;;;4973557;28;20045;-47
2023/12/10 13:44:23;;;;;;;4.88;0.90;;;;;;;;;;4992873;28;20056;-48
2023/12/10 13:46:51;;;;;;;7.80;1.30;;;;;;;;;;4995210;28;20045;-46
2023/12/10 13:49:21;;;;;;;10.90;1.27;;;;;;;;;;5002795;28;20053;-50
2023/12/10 13:51:50;;;;;;;12.05;1.02;;;;;;;;;;4991347;28;20372;-50
2023/12/10 13:54:20;;;;;;;14.53;1.83;;;;;;;;;;4990178;28;20769;-45
2023/12/10 13:56:47;;;;;;;12.40;1.45;;;;;;;;;;4992282;28;20057;-49
2023/12/10 13:59:17;;;;;;;12.77;1.90;;;;;;;;;;4990185;28;20045;-50
2023/12/10 14:01:45;;;;;;;14.13;1.60;;;;;;;;;;4983187;28;20042;-54
2023/12/10 14:04:13;;;;;;;13.10;1.33;;;;;;;;;;4997570;28;20049;-48
2023/12/10 14:06:41;;;;;;;19.38;2.28;;;;;;;;;;4629781;28;10000464;-45
2023/12/10 14:09:10;;;;;;;15.67;2.17;;;;;;;;;;4990681;28;20045;-48
2023/12/10 14:11:39;;;;;;;16.00;2.03;;;;;;;;;;4997475;28;20067;-51
2023/12/10 14:14:11;;;;;;;17.15;2.63;;;;;;;;;;5003507;28;20048;-47
2023/12/10 14:16:44;;;;;;;9.60;1.30;;;;;;;;;;4991868;28;21120;-48
2023/12/10 14:19:12;;;;;;;22.17;2.30;;;;;;;;;;4991249;28;20068;-49
2023/12/10 14:21:40;;;;;;;17.17;2.70;;;;;;;;;;4992410;28;20050;-48
2023/12/10 14:24:08;;;;;;;17.38;2.67;;;;;;;;;;4982069;28;20096;-49
2023/12/10 14:26:36;;;;;;;19.70;2.50;;;;;;;;;;5003942;28;20037;-49
2023/12/10 14:29:05;;;;;;;15.82;2.05;;;;;;;;;;4993993;28;20045;-47
2023/12/10 14:31:33;;;;;;;22.55;3.25;;;;;;;;;;4992851;28;20695;-48
2023/12/10 14:34:01;;;;;;;22.10;3.00;;;;;;;;;;4993296;28;20045;-48
2023/12/10 14:36:29;;;;;;;20.00;2.30;;;;;;;;;;4979977;28;20588;-50
2023/12/10 14:38:57;;;;;;;14.25;2.08;;;;;;;;;;4997744;28;20144;-49